Kezdőlap
METAR-TAF:

METAR-TAF

Repülőterek :

Mumbai, India

földrajzi szélesség: 19-07N, földrajzi hosszúság: 072-51E, magasság: 8 m

Jelenlegi meteorológiai megfigyelések

A jelentés 33 perccel ezelõtt készült, 22:30 UTC
Szélcsend
Hőmérséklet 24°C
Páratartalom 54%
Légköri nyomás 1012 hPa
Látótávolság: 2100 m
füst

METAR: VABB 182230Z 00000KT 2100 FU NSC 24/14 Q1012 NOSIG

Idő: 04:33 (23:03 UTC)

Előrejelzés

A jelentés 3 órával és 3 perccel ezelõtt készült, 20:00 UTC
Az előrejelzés 18-én 21 óra UTC és 19-én 06 óra UTC között érvényes
Különbözõ irányokból fújó szél 3 kt
Látótávolság: 2000 m
füst
19-én 00 óra UTC és 19-én 03 óra UTC között ideiglenes
Látótávolság: 1500 m
füst

TAF: VABB 182000Z 1821/1906 VRB03KT 2000 FU NSC TEMPO 1900/1903 1500 FU

Meteorológiai megfigyelések és előrejelzések több, mint 4000 repülőtéren (METAR és TAF jelentéseket).

A térképen piros és sárga pontok jelzik az elérhető meteorológiai állomásokat.

Mozgassa az egeret a pont fölött, hogy megjelenjen az állomás neve.

Azután kattintson az időjárási megfigyelések és előrejelzések megtekintéséhez.

A térkép megváltoztatása: kattintson a fekete keresztel jelölt zöld gombra ráközelítéshez, a vonallal jelölt zöld gombra távolításhoz, vagy a zöld nyilakra a szomszédos térképek eléréséhez.


METAR-TAF: